AirNav  
 
 753 users online  

WY11 A Bar A Ranch Airport
Encampment, Wyoming, USA


FAA INFORMATION EFFECTIVE 07 DECEMBER 2017

Location

FAA Identifier: WY11
Lat/Long: 41-09-29.8870N / 106-33-27.1110W
41-09.498117N / 106-33.451850W
41.1583019 / -106.5575308
(estimated)
Elevation: 7880 ft. / 2402 m (estimated)
Variation: 13E (1985)
From city: 11 miles E of ENCAMPMENT, WY
Time zone: UTC -7 (UTC -6 during Daylight Saving Time)
Zip code: 82325

Airport Operations

Airport use: Private use. Permission required prior to landing
Activation date: 11/1963
Control tower: no
ARTCC: DENVER CENTER
FSS: CASPER FLIGHT SERVICE STATION
Attendance: UNATNDD
Wind indicator: yes
Segmented circle: no

Airport Communications

UNICOM: 122.8

Nearby radio navigation aids

VOR radial/distance  VOR name  Freq  Var
LARr240/39.2LARAMIE VOR/DME117.6014E

 
NDB name  Hdg/Dist  Freq  Var  ID
SARATOGA132/21.226612ESAA ... .- .-

Airport Services

Airframe service: NONE
Powerplant service: NONE

Runway Information

Runway NW/SE

Dimensions: 5704 x 50 ft. / 1739 x 15 m
Surface: asphalt, in excellent condition
RUNWAY NW  RUNWAY SE
Traffic pattern: leftleft

Airport Ownership and Management from official FAA records

Ownership: Privately-owned
Owner: A BAR A RANCH
PO BOX 247
ENCAMPMENT, WY 82325
Phone 307-327-5454
Manager: JUSTIN HOWE
PO BOX 247
ENCAMPMENT, WY 82325
Phone 307-327-5454

Airport Operational Statistics

Aircraft based on the field: 1
Single engine airplanes: 1
    

Additional Remarks

FREQUENT CROSS WIND.
NUMEROUS HILLS AROUND ARPT. HILL ON S END OF RY FROM 3800 FT TO 4900 FT.
FLY OVER PRIOR TO LANDING RECOMMENDED.
CALL A BAR A RANCH TO ARRANGE PICK-UP AND RY SECURITY 307-327-5454.
ROAD CROSSES MID-FLD.

Instrument Procedures

There are no published instrument procedures at WY11.

Some nearby airports with instrument procedures:

KSAA - Shively Field Airport (21 nm NW)
33V - Walden-Jackson County Airport (28 nm SE)
KLAR - Laramie Regional Airport (41 nm E)
KSBS - Steamboat Springs Airport/Bob Adams Field (41 nm S)
KDWX - Dixon Airport (43 nm W)
 
Loc | Ops | Rwys | IFR | FBO | Links
Com | Nav | Svcs | Stats | Notes


 
Area around WY11 (A Bar A Ranch Airport)
 
Road maps at: MapQuest Bing Google
 
Aerial photo
WARNING: Photo may not be current or correct
Aerial photo of WY11 (A Bar A Ranch Airport)
looking southeast.

Do you have a better or more recent aerial photo of A Bar A Ranch Airport that you would like to share? If so, please send us your photo.

 
Sectional chart

 
Airport distance calculator
Flying to A Bar A Ranch Airport? Find the distance to fly.

From to WY11

Sunrise and sunset
Times for 16-Dec-2017
 Local
(UTC-7)
 Zulu
(UTC)
Morning civil twilight06:5513:55
Sunrise07:2614:26
Sunset16:3823:38
Evening civil twilight17:0900:09

Current date and time
Zulu (UTC)  16-Dec-2017 23:49:51
Local (UTC-7)  16-Dec-2017 16:49:51
 
METAR
KSAA 
21nm NW 
162335Z AUTO 24009KT 10SM CLR M02/M07 A2980 RMK AO2
K33V 
28nm SE 
162335Z AUTO 03006KT 10SM SCT100 BKN110 M03/M10 A2979 RMK AO1
KSBS 
41nm S 
162334Z AUTO 00000KT 10SM CLR M01/M09 A2976 RMK AO1 T10151091
KLAR 
41nm E 
162253Z AUTO 13009KT 10SM CLR M01/M08 A2978 RMK AO2 SLP072 T10111078
TAF
KLAR 
41nm E 
162101Z 1621/1718 14008KT P6SM FEW120 OVC200 FM170200 13015G22KT P6SM OVC011 FM170800 14012KT 2SM -SN BR OVC007
KRWL 
47nm NW 
161722Z 1618/1718 VRB04KT P6SM BKN070 FM170000 03012KT P6SM OVC050 FM170600 01012KT P6SM BKN010 OVC020 AMD LTD TO CLD VIS AND WIND
NOTAMs
Click for the latest NOTAMs
NOTAMs are issued by the DoD/FAA and will open in a separate window not controlled by AirNav.

 

 
 

Would you like to see your business listed on this page?

 If your business provides an interesting product or service to pilots, flight crews, aircraft, or users of the A Bar A Ranch Airport, you should consider listing it here.  To start the listing process, click on the button below
 
Add a business
 

Other Pages about A Bar A Ranch Airport

Update a link
 
Copyright © AirNav, LLC. All rights reserved. Privacy Policy  Contact